createdAt,value
2017-03-08T06:12:37.576Z,19.31
2017-03-08T06:13:18.436Z,19.32
2017-03-08T06:13:59.190Z,19.39
2017-03-08T06:14:39.951Z,19.36
2017-03-08T06:15:20.695Z,19.41
2017-03-08T06:16:01.436Z,19.39
2017-03-08T06:16:42.243Z,19.31
2017-03-08T06:17:30.537Z,19.41
2017-03-08T06:18:11.453Z,19.31
2017-03-08T06:18:52.214Z,19.32
2017-03-08T06:19:33.030Z,19.29
2017-03-08T06:20:13.881Z,19.33
2017-03-08T06:20:54.723Z,19.26
2017-03-08T06:21:35.450Z,19.39
2017-03-08T06:22:16.164Z,19.36
2017-03-08T06:22:56.936Z,19.29
2017-03-08T06:23:37.725Z,19.29
2017-03-08T06:30:37.511Z,19.29
2017-03-08T06:31:18.315Z,19.31
2017-03-08T06:31:59.129Z,19.39
2017-03-08T06:32:39.840Z,19.48
2017-03-08T06:33:21.617Z,19.48
2017-03-08T07:18:13.125Z,19.41
2017-03-08T07:20:10.284Z,19.4
2017-03-08T07:20:54.134Z,19.41
2017-03-08T07:21:35.704Z,19.48
2017-03-08T07:22:16.544Z,19.41
2017-03-08T07:22:57.369Z,19.46
2017-03-08T07:23:38.088Z,19.46
2017-03-08T07:24:19.643Z,19.43
2017-03-08T07:24:59.959Z,19.5
2017-03-08T07:25:40.789Z,19.43
2017-03-08T07:26:21.553Z,19.58
2017-03-08T07:27:02.352Z,19.56
2017-03-08T07:27:43.760Z,19.47
2017-03-08T07:28:24.620Z,19.56
2017-03-08T07:29:05.358Z,19.59
2017-03-08T07:29:46.158Z,19.61
2017-03-08T07:30:26.931Z,19.56
2017-03-08T07:31:07.847Z,19.56
2017-03-08T07:31:48.526Z,19.54
2017-03-08T07:32:30.738Z,19.54
2017-03-08T07:33:10.973Z,19.55
2017-03-08T07:33:52.307Z,19.54
2017-03-08T07:34:33.699Z,19.59
2017-03-08T09:25:40.487Z,20.64
2017-03-08T09:26:21.297Z,20.69
2017-03-08T09:27:02.079Z,20.66
2017-03-08T09:27:42.785Z,20.69
2017-03-08T09:28:23.545Z,20.69
2017-03-08T09:29:04.355Z,20.66
2017-03-08T10:43:21.520Z,21.38
2017-03-08T10:44:02.250Z,21.28
2017-03-08T10:44:43.047Z,21.31
2017-03-08T10:45:23.858Z,21.4
2017-03-08T10:46:04.612Z,21.4
2017-03-08T10:46:45.487Z,21.38
2017-03-08T10:47:26.225Z,21.32
2017-03-08T10:48:07.000Z,21.35
2017-03-08T10:48:47.805Z,21.35
2017-03-08T10:49:28.529Z,21.44
2017-03-08T10:50:09.294Z,21.35
2017-03-08T10:50:50.100Z,21.47
2017-03-08T10:51:30.861Z,21.38
2017-03-08T10:52:11.632Z,21.27
2017-03-08T10:52:52.432Z,21.32
2017-03-08T10:53:33.188Z,21.27
2017-03-08T10:54:14.006Z,21.29
2017-03-08T10:54:54.807Z,21.31
2017-03-08T10:55:35.529Z,21.32
2017-03-08T10:56:16.243Z,21.31
2017-03-08T10:56:56.964Z,21.32
2017-03-08T10:57:37.751Z,21.34
2017-03-08T10:58:18.470Z,21.31
2017-03-08T10:58:59.243Z,21.28
2017-03-08T10:59:39.995Z,21.19
2017-03-08T11:00:20.814Z,21.19
2017-03-08T11:01:01.513Z,21.24
2017-03-08T11:01:42.268Z,21.21
2017-03-08T11:02:23.030Z,21.28
2017-03-08T11:03:03.723Z,21.19
2017-03-08T11:03:44.558Z,21.24
2017-03-08T11:04:25.286Z,21.19
2017-03-08T11:05:07.058Z,21.25
2017-03-08T11:05:47.963Z,21.24
2017-03-08T11:06:28.793Z,21.21
2017-03-08T11:07:09.509Z,21.19
2017-03-08T11:07:50.229Z,21.21
2017-03-08T11:08:31.044Z,21.28
2017-03-08T11:09:11.718Z,21.22
2017-03-08T11:09:52.455Z,21.21
2017-03-08T11:10:33.134Z,21.28
2017-03-08T11:11:13.905Z,21.21
2017-03-08T11:11:54.630Z,21.28
2017-03-08T11:13:55.173Z,21.24
2017-03-08T11:14:36.011Z,21.31
2017-03-08T11:15:16.740Z,21.29
2017-03-08T11:15:57.483Z,21.29
2017-03-08T11:16:38.241Z,21.19
2017-03-08T11:17:18.986Z,21.21
2017-03-08T11:17:59.848Z,21.25
2017-03-08T11:18:40.644Z,21.24
2017-03-08T11:19:21.431Z,21.25
2017-03-08T11:20:02.259Z,21.24
2017-03-08T11:20:43.023Z,21.24
2017-03-08T11:21:23.759Z,21.22
2017-03-08T11:22:04.545Z,21.19
2017-03-08T11:22:45.294Z,21.25
2017-03-08T11:23:26.013Z,21.22
2017-03-08T11:24:06.875Z,21.14
2017-03-08T11:24:47.614Z,21.17
2017-03-08T11:25:28.349Z,21.16
2017-03-08T11:26:09.134Z,21.13
2017-03-08T11:26:49.882Z,21.19
2017-03-08T11:27:30.711Z,21.19
2017-03-08T11:28:11.373Z,21.14
2017-03-08T11:28:52.207Z,21.17
2017-03-08T11:29:33.035Z,21.25
2017-03-08T11:30:13.776Z,21.19
2017-03-08T11:30:54.518Z,21.22
2017-03-08T11:31:35.320Z,21.22
2017-03-08T11:32:16.047Z,21.19
2017-03-08T11:32:56.754Z,21.19
2017-03-08T11:33:37.512Z,21.13
2017-03-08T11:34:18.301Z,21.19
2017-03-08T11:34:59.172Z,21.17
2017-03-08T11:35:39.883Z,21.22
2017-03-08T11:36:20.686Z,21.21
2017-03-08T11:37:01.405Z,21.21
2017-03-08T11:37:42.194Z,21.17
2017-03-08T11:38:22.891Z,21.21
2017-03-08T11:39:03.635Z,21.19
2017-03-08T11:39:44.332Z,21.22
2017-03-08T11:40:25.085Z,21.16
2017-03-08T11:41:05.831Z,21.13
2017-03-08T11:41:46.561Z,21.13
2017-03-08T11:42:27.263Z,21.13
2017-03-08T11:43:08.077Z,21.14
2017-03-08T11:43:48.858Z,21.14
2017-03-08T11:44:29.567Z,21.1
2017-03-08T11:45:10.311Z,21.13
2017-03-08T11:45:51.095Z,21.09
2017-03-08T11:46:31.867Z,21.13
2017-03-08T11:47:12.674Z,21.07
2017-03-08T11:47:53.553Z,21.01
2017-03-08T11:48:34.343Z,21.13
2017-03-08T11:49:15.148Z,21.16
2017-03-08T11:49:55.838Z,21.17
2017-03-08T11:50:36.706Z,21.16
2017-03-08T11:51:17.454Z,21.16
2017-03-08T11:51:58.271Z,21.22
2017-03-08T11:52:39.059Z,21.16
2017-03-08T11:53:19.853Z,21.17
2017-03-08T11:54:00.709Z,21.17
2017-03-08T11:54:41.479Z,21.13
2017-03-08T11:55:22.257Z,21.19
2017-03-08T11:56:02.924Z,21.16
2017-03-08T11:56:43.650Z,21.16
2017-03-08T11:57:24.371Z,21.13
2017-03-08T11:58:05.162Z,21.14
2017-03-08T11:58:45.859Z,21.06
2017-03-08T11:59:26.597Z,21.16
2017-03-08T12:01:22.723Z,21.1
2017-03-08T12:02:03.465Z,21.12
2017-03-08T12:02:44.307Z,21.17
2017-03-08T12:03:25.001Z,21.14
2017-03-08T12:04:05.802Z,21.16
2017-03-08T12:04:46.539Z,21.04
2017-03-08T12:05:27.448Z,21.07
2017-03-08T12:06:08.167Z,21.07
2017-03-08T12:06:49.534Z,21.09
2017-03-08T12:07:30.320Z,21.13
2017-03-08T12:08:11.088Z,21.12
2017-03-08T12:08:51.876Z,21.07
2017-03-08T12:09:32.620Z,21.09
2017-03-08T12:10:13.388Z,21.13
2017-03-08T12:10:54.194Z,21.1
2017-03-08T12:11:34.983Z,21.04
2017-03-08T12:12:15.747Z,21.07
2017-03-08T12:12:56.550Z,21.13
2017-03-08T12:13:37.256Z,21.13
2017-03-08T12:14:18.819Z,21.12
2017-03-08T12:15:00.535Z,21.12
2017-03-08T12:15:41.287Z,21.09
2017-03-08T12:16:22.089Z,21.12
2017-03-08T12:17:03.617Z,21.12
2017-03-08T12:17:44.420Z,21.12
2017-03-08T12:18:25.250Z,21.13
2017-03-08T12:19:06.004Z,21.04
2017-03-08T12:19:46.740Z,21.09
2017-03-08T12:20:27.585Z,21.06
2017-03-08T12:21:08.306Z,21.09
2017-03-08T12:21:49.072Z,21.03
2017-03-08T12:22:29.861Z,21.07
2017-03-08T12:23:10.624Z,21.07
2017-03-08T12:23:51.408Z,21.03
2017-03-08T12:24:33.130Z,21.04
2017-03-08T12:25:13.834Z,20.92
2017-03-08T12:25:54.689Z,21.03
2017-03-08T12:26:35.427Z,20.91
2017-03-08T12:27:16.158Z,20.97
2017-03-08T12:27:56.900Z,20.89
2017-03-08T12:28:37.625Z,20.97
2017-03-08T12:29:18.387Z,21.04
2017-03-08T12:29:59.160Z,20.97
2017-03-08T12:30:46.681Z,20.98
2017-03-08T12:31:27.413Z,21.03
2017-03-08T12:32:08.133Z,21.01
2017-03-08T12:32:48.990Z,20.99
2017-03-08T12:33:29.867Z,20.98
2017-03-08T12:34:10.696Z,20.99
2017-03-08T12:34:51.397Z,20.92
2017-03-08T12:35:32.184Z,20.97
2017-03-08T12:36:12.935Z,21.03
2017-03-08T12:36:53.668Z,20.95
2017-03-08T12:37:34.400Z,20.99
2017-03-08T12:38:15.185Z,20.92
2017-03-08T12:38:55.972Z,20.91
2017-03-08T12:39:36.691Z,20.95
2017-03-08T12:40:17.442Z,20.92
2017-03-08T12:40:58.149Z,20.95
2017-03-08T12:41:38.952Z,20.95
2017-03-08T12:42:19.734Z,20.94
2017-03-08T12:43:00.463Z,20.92
2017-03-08T12:43:41.199Z,20.89
2017-03-08T12:44:22.020Z,20.92
2017-03-08T12:45:02.703Z,20.92
2017-03-08T12:45:43.514Z,20.94
2017-03-08T12:46:24.760Z,20.95
2017-03-08T12:47:04.908Z,20.95
2017-03-08T12:47:45.611Z,20.94
2017-03-08T12:48:26.336Z,20.99
2017-03-08T12:49:07.117Z,20.88
2017-03-08T12:49:47.865Z,20.91
2017-03-08T12:50:28.607Z,20.91
2017-03-08T12:51:09.375Z,20.91
2017-03-08T12:51:50.979Z,20.92
2017-03-08T12:52:31.763Z,20.97
2017-03-08T12:53:12.508Z,20.94
2017-03-08T12:53:53.273Z,20.89
2017-03-08T12:54:34.001Z,20.94
2017-03-08T12:55:14.827Z,20.98
2017-03-08T12:55:55.905Z,20.92
2017-03-08T12:56:38.349Z,20.94
2017-03-08T12:57:19.178Z,20.94
2017-03-08T12:57:59.951Z,20.91
2017-03-08T12:58:40.703Z,20.89
2017-03-08T12:59:21.522Z,20.97
2017-03-08T13:00:02.332Z,20.85
2017-03-08T13:00:43.054Z,20.94
2017-03-08T13:01:23.819Z,20.91
2017-03-08T13:02:04.574Z,21.01
2017-03-08T13:02:45.336Z,20.95
2017-03-08T13:03:26.144Z,20.91
2017-03-08T13:04:06.911Z,20.95
2017-03-08T13:04:47.694Z,20.91
2017-03-08T13:05:28.380Z,20.97
2017-03-08T13:06:09.795Z,20.95
2017-03-08T13:06:50.551Z,20.91
2017-03-08T13:07:31.345Z,20.94
2017-03-08T13:08:12.073Z,20.88
2017-03-08T13:08:52.813Z,20.91
2017-03-08T13:09:33.598Z,20.89
2017-03-08T13:10:14.343Z,20.97
2017-03-08T13:10:55.775Z,20.92
2017-03-08T13:11:36.032Z,20.89
2017-03-08T13:12:16.772Z,20.88
2017-03-08T13:12:57.631Z,20.98
2017-03-08T13:13:38.448Z,20.94
2017-03-08T13:14:19.203Z,20.95
2017-03-08T13:14:59.935Z,20.91
2017-03-08T13:15:40.730Z,20.91
2017-03-08T13:16:21.562Z,20.88
2017-03-08T13:17:02.271Z,20.85
2017-03-08T13:17:43.054Z,20.88
2017-03-08T13:18:23.766Z,20.88
2017-03-08T13:19:04.519Z,20.88
2017-03-08T13:19:45.413Z,20.88
2017-03-08T13:20:26.106Z,20.87
2017-03-08T13:21:07.000Z,20.8
2017-03-08T13:21:47.742Z,20.82
2017-03-08T13:22:28.645Z,20.8
2017-03-08T13:23:09.347Z,20.79
2017-03-08T13:23:50.065Z,20.77
2017-03-08T13:24:30.799Z,20.82
2017-03-08T13:25:11.564Z,20.79
2017-03-08T13:25:52.311Z,20.79
2017-03-08T13:26:33.053Z,20.79
2017-03-08T13:27:13.826Z,20.82
2017-03-08T13:27:54.679Z,20.87
2017-03-08T13:28:35.475Z,20.94
2017-03-08T13:29:16.202Z,20.8
2017-03-08T13:29:56.958Z,20.8
2017-03-08T13:30:37.727Z,20.82
2017-03-08T13:31:18.483Z,20.82
2017-03-08T13:31:59.215Z,20.88
2017-03-08T13:32:39.994Z,20.82
2017-03-08T13:33:20.753Z,20.8
2017-03-08T13:34:01.528Z,20.87
2017-03-08T13:34:42.220Z,20.88
2017-03-08T13:35:22.953Z,20.88
2017-03-08T13:36:03.729Z,20.91
2017-03-08T13:36:44.492Z,20.88
2017-03-08T13:37:25.337Z,20.8
2017-03-08T13:38:06.116Z,20.77
2017-03-08T13:38:46.837Z,20.87
2017-03-08T13:39:27.614Z,20.8
2017-03-08T13:40:08.399Z,20.8
2017-03-08T13:40:49.940Z,20.74
2017-03-08T13:41:31.290Z,20.73
2017-03-08T13:42:11.531Z,20.8
2017-03-08T13:42:52.321Z,20.77
2017-03-08T13:43:33.062Z,20.73
2017-03-08T13:45:23.942Z,20.79
2017-03-08T13:46:04.800Z,20.73
2017-03-08T13:46:45.564Z,20.73
2017-03-08T13:47:26.379Z,20.74
2017-03-08T13:48:07.104Z,20.74
2017-03-08T13:48:48.390Z,20.72
2017-03-08T13:49:28.577Z,20.76
2017-03-08T13:50:10.222Z,20.76
2017-03-08T13:50:54.390Z,20.73
2017-03-08T13:51:34.772Z,20.74
2017-03-08T13:52:16.132Z,20.73
2017-03-08T13:52:56.861Z,20.72
2017-03-08T13:53:38.179Z,20.87
2017-03-08T13:54:19.027Z,20.8
2017-03-08T13:54:59.802Z,20.8
2017-03-08T13:55:40.559Z,20.73
2017-03-08T13:56:21.309Z,20.79
2017-03-08T13:57:02.061Z,20.79
2017-03-08T13:57:42.755Z,20.89
2017-03-08T13:58:23.573Z,20.85
2017-03-08T13:59:04.380Z,20.77
2017-03-08T13:59:45.120Z,20.73
2017-03-08T14:00:25.882Z,20.73
2017-03-08T14:01:06.599Z,20.79
2017-03-08T14:01:47.387Z,20.76
2017-03-08T14:02:28.219Z,20.74
2017-03-08T14:03:08.935Z,20.8
2017-03-08T14:16:01.520Z,20.72
2017-03-08T14:16:42.704Z,20.61
2017-03-08T14:17:24.086Z,20.72
2017-03-08T14:18:04.844Z,20.69
2017-03-08T14:18:45.660Z,20.72
2017-03-08T14:19:26.448Z,20.67
2017-03-08T14:20:07.180Z,20.61
2017-03-08T14:20:47.886Z,20.64
2017-03-08T14:21:28.637Z,20.69
2017-03-08T14:22:09.482Z,20.67
2017-03-08T14:22:50.220Z,20.64
2017-03-08T14:23:30.946Z,20.64
2017-03-08T14:24:11.673Z,20.66
2017-03-08T14:24:52.435Z,20.61
2017-03-08T14:28:17.075Z,20.64
2017-03-08T14:28:57.825Z,20.66
2017-03-08T14:29:38.627Z,20.61
2017-03-08T14:30:19.340Z,20.66
2017-03-08T14:31:00.121Z,20.66
2017-03-08T14:31:40.886Z,20.58
2017-03-08T14:32:21.618Z,20.64
2017-03-08T14:33:02.587Z,20.67
2017-03-08T14:33:43.291Z,20.67
2017-03-08T14:34:24.153Z,20.7
2017-03-08T14:35:05.586Z,20.69
2017-03-08T14:35:46.304Z,20.64
2017-03-08T14:36:27.957Z,20.62
2017-03-08T14:37:08.636Z,20.62
2017-03-08T14:37:49.421Z,20.62
2017-03-08T14:38:30.160Z,20.61
2017-03-08T14:39:10.900Z,20.62
2017-03-08T14:39:51.628Z,20.62
2017-03-08T14:40:32.398Z,20.61
2017-03-08T14:41:13.160Z,20.64
2017-03-08T14:41:53.907Z,20.64
2017-03-08T14:42:34.627Z,20.64
2017-03-08T14:43:15.430Z,20.67
2017-03-08T14:43:56.158Z,20.66
2017-03-08T14:45:58.064Z,20.62
2017-03-08T14:46:38.814Z,20.62
2017-03-08T14:47:19.561Z,20.61
2017-03-08T14:48:00.282Z,20.61
2017-03-08T14:48:40.980Z,20.57
2017-03-08T14:49:21.752Z,20.57
2017-03-08T14:50:02.488Z,20.61
2017-03-08T14:50:43.773Z,20.52
2017-03-08T14:51:24.425Z,20.57
2017-03-08T14:52:05.172Z,20.58
2017-03-08T14:52:45.922Z,20.59
2017-03-08T14:53:26.794Z,20.61
2017-03-08T14:54:07.593Z,20.64
2017-03-08T14:54:48.358Z,20.58
2017-03-08T14:55:43.278Z,20.61
2017-03-08T14:56:24.734Z,20.67
2017-03-08T14:57:05.525Z,20.59
2017-03-08T14:57:46.206Z,20.62
2017-03-08T14:58:26.987Z,20.61
2017-03-08T14:59:07.701Z,20.57
2017-03-08T14:59:48.523Z,20.58
2017-03-08T15:00:29.276Z,20.61
2017-03-08T15:01:10.046Z,20.62
2017-03-08T15:01:50.903Z,20.55
2017-03-08T15:02:31.594Z,20.61
2017-03-08T15:03:39.244Z,20.58
2017-03-08T15:04:19.992Z,20.57
2017-03-08T15:05:00.878Z,20.51
2017-03-08T15:05:41.631Z,20.54
2017-03-08T15:06:36.898Z,20.59
2017-03-08T15:07:17.627Z,20.5
2017-03-08T15:07:58.419Z,20.57
2017-03-08T15:08:39.168Z,20.62
2017-03-08T15:09:19.938Z,20.51
2017-03-08T15:10:00.777Z,20.48
2017-03-08T15:10:41.476Z,20.51
2017-03-08T15:11:22.194Z,20.51
2017-03-08T15:12:02.941Z,20.54
2017-03-08T15:12:43.773Z,20.54
2017-03-08T15:13:24.526Z,20.5
2017-03-08T15:14:05.335Z,20.54
2017-03-08T15:14:46.084Z,20.52
2017-03-08T15:15:29.638Z,20.52
2017-03-08T15:16:10.416Z,20.58
2017-03-08T15:16:51.158Z,20.51
2017-03-08T15:17:33.521Z,20.5
2017-03-08T15:18:15.146Z,20.52
2017-03-08T15:18:55.936Z,20.55
2017-03-08T15:19:36.709Z,20.48
2017-03-08T15:20:17.444Z,20.43
2017-03-08T15:20:58.749Z,20.51
2017-03-08T15:21:39.512Z,20.41
2017-03-08T15:22:20.282Z,20.58
2017-03-08T15:23:00.966Z,20.52
2017-03-08T15:23:41.753Z,20.58
2017-03-08T15:24:23.298Z,20.52
2017-03-08T15:25:03.444Z,20.39
2017-03-08T15:25:44.189Z,20.42
2017-03-08T15:26:24.943Z,20.43
2017-03-08T15:27:06.384Z,20.51
2017-03-08T15:27:49.326Z,20.54
2017-03-08T15:28:31.906Z,20.5
2017-03-08T15:29:12.721Z,20.52
2017-03-08T15:29:54.010Z,20.47
2017-03-08T15:30:34.326Z,20.55
2017-03-08T15:31:15.124Z,20.55
2017-03-08T15:31:56.393Z,20.52
2017-03-08T15:48:13.302Z,20.43
2017-03-08T15:48:54.024Z,20.48
2017-03-08T15:49:34.751Z,20.41
2017-03-08T15:50:15.475Z,20.43
2017-03-08T15:50:56.272Z,20.55
2017-03-08T15:51:37.142Z,20.5
2017-03-08T15:52:17.882Z,20.48
2017-03-08T15:52:58.682Z,20.48
2017-03-08T15:53:39.376Z,20.43
2017-03-08T15:54:20.193Z,20.41
2017-03-08T15:55:00.921Z,20.48
2017-03-08T15:55:41.712Z,20.51
2017-03-08T15:56:22.480Z,20.39
2017-03-08T15:57:03.201Z,20.39
2017-03-08T15:57:43.944Z,20.41
2017-03-08T15:58:24.675Z,20.36
2017-03-08T15:59:05.433Z,20.42
2017-03-08T15:59:46.284Z,20.41
2017-03-08T16:00:27.026Z,20.38
2017-03-08T16:01:07.743Z,20.32
2017-03-08T16:01:48.476Z,20.31
2017-03-08T16:02:29.246Z,20.35
2017-03-08T16:03:09.979Z,20.35
2017-03-08T16:03:51.350Z,20.39
2017-03-08T16:04:31.556Z,20.38
2017-03-08T16:05:12.252Z,20.35
2017-03-08T16:05:53.833Z,20.35
2017-03-08T16:07:58.257Z,20.41
2017-03-08T16:09:48.224Z,20.36
2017-03-08T16:10:29.058Z,20.43
2017-03-08T16:11:10.377Z,20.42
2017-03-08T16:11:51.157Z,20.39
2017-03-08T16:12:31.869Z,20.39
2017-03-08T16:13:12.550Z,20.42
2017-03-08T16:13:53.345Z,20.35
2017-03-08T16:14:34.103Z,20.35
2017-03-08T16:15:14.848Z,20.36
2017-03-08T16:15:55.611Z,20.35
2017-03-08T16:16:36.324Z,20.32
2017-03-08T16:17:17.113Z,20.35
2017-03-08T16:17:57.845Z,20.26
2017-03-08T16:18:38.631Z,20.38
2017-03-08T16:19:19.469Z,20.36
2017-03-08T16:20:02.739Z,20.26
2017-03-08T16:20:49.704Z,20.36
2017-03-08T16:21:30.479Z,20.36
2017-03-08T16:22:11.173Z,20.38
2017-03-08T16:22:51.934Z,20.32
2017-03-08T16:23:32.693Z,20.29
2017-03-08T16:24:13.409Z,20.29
2017-03-08T16:24:54.152Z,20.29
2017-03-08T16:25:34.868Z,20.39
2017-03-08T16:26:15.633Z,20.31
2017-03-08T16:26:56.400Z,20.26
2017-03-08T16:27:37.127Z,20.31
2017-03-08T16:29:32.485Z,20.31
2017-03-08T16:30:13.165Z,20.31
2017-03-08T16:30:53.904Z,20.35
2017-03-08T16:31:34.709Z,20.31
2017-03-08T16:32:15.429Z,20.29
2017-03-08T16:32:56.202Z,20.32
2017-03-08T16:33:36.906Z,20.31
2017-03-08T16:34:17.717Z,20.2
2017-03-08T16:35:09.093Z,20.28
2017-03-08T16:35:49.839Z,20.18
2017-03-08T16:36:30.596Z,20.29
2017-03-08T16:37:11.453Z,20.31
2017-03-08T16:37:52.209Z,20.28
2017-03-08T16:38:33.013Z,20.29
2017-03-08T16:39:13.870Z,20.21
2017-03-08T16:39:54.598Z,20.29
2017-03-08T16:40:35.383Z,20.26
2017-03-08T16:41:16.101Z,20.31
2017-03-08T16:41:56.824Z,20.31
2017-03-08T16:42:37.571Z,20.29
2017-03-08T16:43:18.320Z,20.26
2017-03-08T16:43:59.165Z,20.31
2017-03-08T16:44:39.926Z,20.23
2017-03-08T16:45:20.579Z,20.24
2017-03-08T16:46:01.306Z,20.31
2017-03-08T16:46:42.000Z,20.31
2017-03-08T16:47:22.717Z,20.23
2017-03-08T16:48:03.514Z,20.26
2017-03-08T16:48:44.209Z,20.24
2017-03-08T16:49:24.999Z,20.26
2017-03-08T16:50:05.732Z,20.23
2017-03-08T16:50:46.489Z,20.31
2017-03-08T16:51:27.276Z,20.2
2017-03-08T16:52:08.011Z,20.16
2017-03-08T16:52:48.786Z,20.17
2017-03-08T16:53:29.581Z,20.14
2017-03-08T16:54:10.403Z,20.13
2017-03-08T16:54:51.177Z,20.24
2017-03-08T16:55:32.482Z,20.26
2017-03-08T16:56:13.295Z,20.14
2017-03-08T16:56:54.049Z,20.21
2017-03-08T16:57:34.790Z,20.21
2017-03-08T16:58:15.597Z,20.24
2017-03-08T16:58:56.352Z,20.18
2017-03-08T16:59:37.122Z,20.11
2017-03-08T17:00:18.428Z,20.2
2017-03-08T17:00:59.135Z,20.2
2017-03-08T17:01:39.882Z,20.14
2017-03-08T17:02:20.607Z,20.14
2017-03-08T17:03:01.440Z,20.17
2017-03-08T17:03:42.145Z,20.08
2017-03-08T17:04:22.910Z,20.14
2017-03-08T17:05:03.723Z,20.17
2017-03-08T17:05:44.498Z,20.11
2017-03-08T17:06:25.314Z,20.17
2017-03-08T17:07:06.199Z,20.24
2017-03-08T17:07:47.469Z,20.18
2017-03-08T17:08:27.682Z,20.17
2017-03-08T17:09:08.412Z,20.18
2017-03-08T17:09:49.180Z,20.14
2017-03-08T17:10:29.890Z,20.11
2017-03-08T17:11:10.636Z,20.17
2017-03-08T17:11:51.331Z,20.16
2017-03-08T17:12:32.114Z,20.14
2017-03-08T17:13:12.873Z,20.14
2017-03-08T17:13:53.555Z,20.16
2017-03-08T17:14:34.356Z,20.16
2017-03-08T17:15:15.070Z,20.18
2017-03-08T17:15:55.821Z,20.08
2017-03-08T17:16:36.531Z,20.13
2017-03-08T17:17:17.275Z,20.16
2017-03-08T17:17:58.022Z,20.23
2017-03-08T17:18:38.777Z,20.17
2017-03-08T17:19:19.547Z,20.18
2017-03-08T17:24:31.672Z,20.18
2017-03-08T17:28:17.369Z,20.26
2017-03-08T17:28:58.111Z,20.23
2017-03-08T17:29:38.918Z,20.23
2017-03-08T17:30:19.770Z,20.2
2017-03-08T17:35:34.996Z,20.16
2017-03-08T17:40:52.017Z,20.17
2017-03-08T17:41:33.688Z,20.02
2017-03-08T17:42:14.454Z,20.11
2017-03-08T17:42:55.146Z,20.1
2017-03-08T17:43:35.982Z,20.08
2017-03-08T17:44:16.764Z,20.11
2017-03-08T17:44:57.547Z,20.1
2017-03-08T17:45:38.337Z,20.05
2017-03-08T17:46:19.058Z,20.06
2017-03-08T17:46:59.851Z,20.1
2017-03-08T17:47:40.683Z,20.01
2017-03-08T17:48:21.442Z,20.08
2017-03-08T17:49:02.563Z,20.05
2017-03-08T17:49:43.312Z,20.03
2017-03-08T17:50:24.049Z,20.06
2017-03-08T17:51:04.849Z,20.14
2017-03-08T17:51:45.536Z,20.05
2017-03-08T17:52:26.236Z,20.03
2017-03-08T17:53:07.125Z,20.05
2017-03-08T17:53:47.871Z,19.99
2017-03-08T17:54:28.645Z,20.01
2017-03-08T17:55:09.445Z,19.99
2017-03-08T17:55:50.242Z,20.02
2017-03-08T17:56:31.003Z,20.06
2017-03-08T17:57:11.685Z,20.03
2017-03-08T17:57:52.428Z,20.02
2017-03-08T17:58:33.201Z,20.06
2017-03-08T17:59:14.000Z,20.02
2017-03-08T17:59:54.782Z,20.03
2017-03-08T18:00:35.606Z,20.06
2017-03-08T18:01:16.380Z,20.13
2017-03-08T18:01:57.176Z,20.11
2017-03-08T18:02:37.914Z,20.08
2017-03-08T18:03:18.587Z,20.14
2017-03-08T18:03:59.353Z,20.02
2017-03-08T18:04:40.092Z,20.16
2017-03-08T18:05:20.836Z,20.08
2017-03-08T18:06:01.615Z,20.1
2017-03-08T18:06:42.339Z,20.1
2017-03-08T18:07:23.166Z,20.02
2017-03-08T18:08:03.916Z,20.02
2017-03-08T18:08:44.814Z,20.05
2017-03-08T18:09:25.606Z,20.05
2017-03-08T18:10:08.938Z,20.01
2017-03-08T18:10:49.673Z,20.08
2017-03-08T18:11:30.488Z,20.05
2017-03-08T18:12:11.280Z,20.11
2017-03-08T18:12:52.021Z,20.1
2017-03-08T18:13:32.831Z,20.05
2017-03-08T18:14:13.617Z,20.1
2017-03-08T18:14:54.446Z,20.06
2017-03-08T18:15:35.232Z,20.11
2017-03-08T18:16:15.995Z,20.08
2017-03-08T18:16:56.877Z,20.08
2017-03-08T18:17:37.668Z,20.11
2017-03-08T18:18:18.320Z,20.05
2017-03-08T18:18:59.107Z,20.1
2017-03-08T18:19:39.861Z,20.08
2017-03-08T18:20:20.524Z,20.03
2017-03-08T18:21:01.417Z,20.11
2017-03-08T18:21:42.257Z,20.03
2017-03-08T18:22:22.998Z,20.05
2017-03-08T18:23:03.759Z,20.06
2017-03-08T18:23:44.508Z,20.05
2017-03-08T18:24:25.326Z,20.06
2017-03-08T18:25:06.101Z,20.1
2017-03-08T18:25:46.862Z,20.06
2017-03-08T18:26:27.569Z,20.1
2017-03-08T18:27:08.360Z,19.96
2017-03-08T18:27:49.081Z,19.99
2017-03-08T18:28:29.868Z,19.99
2017-03-08T18:29:10.651Z,20.11
2017-03-08T18:29:51.455Z,20.05
2017-03-08T18:30:32.280Z,20.02
2017-03-08T18:31:12.978Z,20.02
2017-03-08T18:31:53.749Z,19.95
2017-03-08T18:32:34.519Z,20.01
2017-03-08T18:33:15.262Z,19.96
2017-03-08T18:33:56.048Z,19.95
2017-03-08T18:34:36.783Z,20.05
2017-03-08T18:35:17.611Z,20.02
2017-03-08T18:35:58.316Z,19.91
2017-03-08T18:36:39.075Z,19.98
2017-03-08T18:37:19.762Z,20.05
2017-03-08T18:38:00.542Z,20.02
2017-03-08T18:38:41.257Z,19.99
2017-03-08T18:39:22.019Z,19.92
2017-03-08T18:40:05.370Z,19.99
2017-03-08T18:40:46.251Z,19.92
2017-03-08T18:41:27.043Z,19.99
2017-03-08T18:42:07.739Z,20.02
2017-03-08T18:42:48.516Z,19.98
2017-03-08T18:43:29.316Z,19.95
2017-03-08T18:44:10.089Z,19.96
2017-03-08T18:44:50.845Z,19.95
2017-03-08T18:45:31.645Z,19.96
2017-03-08T18:46:12.410Z,20.02
2017-03-08T18:46:53.132Z,19.98
2017-03-08T18:47:33.899Z,20.05
2017-03-08T18:48:14.635Z,19.92
2017-03-08T18:48:55.528Z,20.01
2017-03-08T18:49:36.267Z,19.92
2017-03-08T18:50:17.099Z,19.99
2017-03-08T18:50:57.831Z,19.94
2017-03-08T18:51:38.626Z,19.94
2017-03-08T18:52:19.529Z,19.92
2017-03-08T18:53:00.304Z,19.92
2017-03-08T18:53:41.205Z,19.99
2017-03-08T18:54:22.363Z,19.94
2017-03-08T18:55:03.279Z,19.96
2017-03-08T18:55:44.159Z,19.94
2017-03-08T18:56:25.098Z,19.94
2017-03-08T18:57:05.869Z,19.99
2017-03-08T18:57:46.596Z,19.99
2017-03-08T18:58:27.390Z,19.98
2017-03-08T18:59:08.192Z,19.88
2017-03-08T18:59:48.971Z,19.94
2017-03-08T19:00:29.728Z,19.92
2017-03-08T19:01:10.599Z,19.99
2017-03-08T19:01:51.358Z,19.96
2017-03-08T19:02:32.061Z,19.96
2017-03-08T19:03:12.843Z,19.99
2017-03-08T19:03:53.609Z,19.98
2017-03-08T19:04:34.378Z,19.95
2017-03-08T19:05:15.112Z,20.06
2017-03-08T19:05:55.907Z,19.95
2017-03-08T19:06:36.669Z,19.95
2017-03-08T19:07:17.403Z,20.02
2017-03-08T19:07:58.168Z,19.94
2017-03-08T19:08:38.967Z,19.99
2017-03-08T19:09:19.747Z,19.92
2017-03-08T19:10:00.521Z,19.94
2017-03-08T19:10:41.255Z,20.02
2017-03-08T19:11:22.135Z,19.92
2017-03-08T19:12:02.934Z,19.99
2017-03-08T19:12:43.643Z,19.98
2017-03-08T19:13:24.440Z,20.03
2017-03-08T19:14:05.144Z,19.94
2017-03-08T19:14:46.006Z,19.94
2017-03-08T19:15:26.753Z,20.01
2017-03-08T19:16:07.561Z,19.95
2017-03-08T19:16:48.337Z,20.01
2017-03-08T19:17:29.061Z,19.94
2017-03-08T19:18:09.850Z,19.94
2017-03-08T19:18:50.657Z,19.94
2017-03-08T19:19:31.490Z,19.95
2017-03-08T19:20:12.247Z,19.98
2017-03-08T19:20:52.988Z,19.91
2017-03-08T19:21:33.757Z,19.95
2017-03-08T19:22:15.169Z,19.95
2017-03-08T19:22:55.198Z,19.91
2017-03-08T19:23:36.089Z,19.94
2017-03-08T19:24:16.829Z,19.92
2017-03-08T19:24:57.550Z,19.95
2017-03-08T19:25:38.286Z,19.92
2017-03-08T19:26:19.013Z,19.96
2017-03-08T19:26:59.818Z,19.94
2017-03-08T19:27:40.656Z,20.03
2017-03-08T19:28:43.492Z,19.96
2017-03-08T19:29:26.029Z,19.92
2017-03-08T19:30:06.709Z,20.03
2017-03-08T19:30:47.435Z,19.91
2017-03-08T19:31:28.180Z,19.88
2017-03-08T19:32:08.948Z,19.88
2017-03-08T19:32:49.695Z,19.96
2017-03-08T19:33:30.468Z,19.94
2017-03-08T19:34:11.357Z,19.95
2017-03-08T19:34:52.176Z,19.92
2017-03-08T19:35:32.931Z,19.95
2017-03-08T19:36:13.641Z,19.91
2017-03-08T19:36:54.445Z,19.91
2017-03-08T19:37:35.139Z,19.88
2017-03-08T19:38:15.924Z,19.96
2017-03-08T19:38:57.177Z,19.91
2017-03-08T19:39:37.991Z,19.94
2017-03-08T19:41:29.224Z,19.94
2017-03-08T19:42:10.893Z,19.91
2017-03-08T19:42:51.692Z,19.95
2017-03-08T19:43:32.513Z,19.88
2017-03-08T19:44:13.345Z,19.94
2017-03-08T19:44:54.054Z,19.91
2017-03-08T19:45:34.808Z,19.88
2017-03-08T19:46:15.515Z,19.94
2017-03-08T19:46:56.239Z,19.92
2017-03-08T19:47:37.028Z,19.87
2017-03-08T19:48:17.800Z,19.98
2017-03-08T19:48:58.652Z,19.92
2017-03-08T19:49:39.413Z,19.87
2017-03-08T19:50:20.284Z,19.99
2017-03-08T19:51:01.156Z,19.92
2017-03-08T19:51:41.997Z,19.81
2017-03-08T19:52:22.816Z,19.95
2017-03-08T19:53:03.573Z,19.88
2017-03-08T19:53:44.629Z,19.95